createdAt,value
2022-12-09T07:56:04.788Z,46.70
2022-12-09T07:58:37.864Z,43.88
2022-12-09T08:03:46.221Z,46.42
2022-12-09T08:06:22.038Z,49.88
2022-12-09T08:08:58.605Z,45.15
2022-12-09T08:11:34.392Z,44.15
2022-12-09T08:14:12.892Z,39.60
2022-12-09T08:16:46.421Z,42.63
2022-12-09T08:19:19.522Z,48.78
2022-12-09T08:21:54.813Z,43.20
2022-12-09T08:24:28.163Z,46.33
2022-12-09T08:27:02.667Z,45.10
2022-12-09T08:29:37.275Z,47.60
2022-12-09T08:32:10.628Z,42.42
2022-12-09T08:34:44.282Z,42.83
2022-12-09T08:37:18.174Z,41.88
2022-12-09T08:39:51.488Z,47.38
2022-12-09T08:42:26.126Z,42.75
2022-12-09T08:45:02.485Z,43.38
2022-12-09T08:47:36.306Z,42.90
2022-12-09T08:50:10.565Z,42.75
2022-12-09T08:52:44.363Z,41.22
2022-12-09T08:55:17.634Z,48.05
2022-12-09T08:57:52.094Z,44.30
2022-12-09T09:00:25.074Z,44.47
2022-12-09T09:05:31.248Z,40.47
2022-12-09T09:08:04.896Z,44.78
2022-12-09T09:10:38.368Z,37.75
2022-12-09T09:13:16.375Z,39.65
2022-12-09T09:15:49.640Z,44.00
2022-12-09T09:18:22.510Z,41.08
2022-12-09T09:23:32.659Z,40.75
2022-12-09T09:26:06.322Z,40.85
2022-12-09T09:28:40.636Z,42.72
2022-12-09T09:31:15.982Z,43.20
2022-12-09T09:33:49.904Z,41.83
2022-12-09T09:36:25.272Z,43.42
2022-12-09T09:38:59.532Z,38.88
2022-12-09T09:41:44.771Z,41.58
2022-12-09T09:44:28.837Z,46.47
2022-12-09T09:47:03.762Z,43.67
2022-12-09T09:49:43.024Z,48.90
2022-12-09T09:52:21.116Z,43.38
2022-12-09T09:54:54.853Z,49.38
2022-12-09T09:57:47.162Z,45.40
2022-12-09T10:00:26.702Z,48.20
2022-12-09T10:03:02.549Z,45.63
2022-12-09T10:05:40.251Z,50.72
2022-12-09T10:08:32.643Z,48.75
2022-12-09T10:11:18.916Z,52.10
2022-12-09T10:13:59.752Z,54.33
2022-12-09T10:16:40.580Z,51.92
2022-12-09T10:19:29.149Z,52.20
2022-12-09T10:22:12.910Z,60.15
2022-12-09T10:24:50.280Z,55.60
2022-12-09T10:27:31.283Z,52.60
2022-12-09T10:30:09.004Z,56.70
2022-12-09T10:32:44.089Z,50.72
2022-12-09T10:35:19.893Z,52.33
2022-12-09T10:37:57.063Z,54.88
2022-12-09T10:40:36.948Z,54.08
2022-12-09T10:43:39.025Z,52.75
2022-12-09T10:46:18.337Z,53.95
2022-12-09T10:48:58.804Z,52.92
2022-12-09T10:51:35.690Z,56.92
2022-12-09T10:54:21.960Z,52.75
2022-12-09T10:57:26.697Z,55.28
2022-12-09T11:00:03.264Z,54.33
2022-12-09T11:02:36.826Z,56.75
2022-12-09T11:05:26.565Z,55.42
2022-12-09T11:08:01.079Z,58.03
2022-12-09T11:10:34.598Z,52.08
2022-12-09T11:13:09.842Z,50.67
2022-12-09T11:15:46.156Z,55.08
2022-12-09T11:18:22.207Z,53.40
2022-12-09T11:20:59.252Z,54.65
2022-12-09T11:23:33.568Z,48.83
2022-12-09T11:26:22.365Z,48.13
2022-12-09T11:29:04.592Z,54.85
2022-12-09T11:31:41.045Z,50.97
2022-12-09T11:34:22.990Z,50.58
2022-12-09T11:37:02.521Z,50.30
2022-12-09T11:39:37.571Z,55.22
2022-12-09T11:42:19.427Z,46.83
2022-12-09T11:44:57.679Z,46.73
2022-12-09T11:47:57.183Z,49.95
2022-12-09T11:50:31.553Z,49.33
2022-12-09T11:53:25.623Z,48.38
2022-12-09T11:56:05.614Z,49.13
2022-12-09T11:58:45.053Z,50.95
2022-12-09T12:01:25.694Z,47.08
2022-12-09T12:04:01.987Z,54.08
2022-12-09T12:06:43.335Z,52.28
2022-12-09T12:09:23.674Z,46.53
2022-12-09T12:12:04.501Z,47.50
2022-12-09T12:14:39.639Z,47.88
2022-12-09T12:17:19.644Z,46.03
2022-12-09T12:19:56.366Z,40.17
2022-12-09T12:22:54.920Z,42.40
2022-12-09T12:25:41.067Z,44.45
2022-12-09T12:28:27.045Z,40.25
2022-12-09T12:31:07.023Z,45.17
2022-12-09T12:36:57.220Z,45.75
2022-12-09T12:39:46.361Z,40.45
2022-12-09T12:42:33.925Z,43.65
2022-12-09T12:45:39.202Z,42.08
2022-12-09T12:48:24.294Z,36.30
2022-12-09T12:51:08.616Z,36.38
2022-12-09T12:53:54.099Z,39.25
2022-12-09T12:56:35.901Z,37.00
2022-12-09T12:59:15.019Z,36.13
2022-12-09T13:01:54.326Z,38.67
2022-12-09T13:04:35.873Z,34.35
2022-12-09T13:07:16.542Z,34.55
2022-12-09T13:09:56.610Z,38.45
2022-12-09T13:12:50.715Z,36.10
2022-12-09T13:15:32.238Z,38.58
2022-12-09T13:18:08.617Z,37.65
2022-12-09T13:20:47.409Z,38.83
2022-12-09T13:23:33.116Z,35.13
2022-12-09T13:26:18.000Z,36.92
2022-12-09T13:29:03.563Z,35.40
2022-12-09T13:31:43.242Z,34.72
2022-12-09T13:34:27.917Z,35.40
2022-12-09T13:37:00.746Z,33.10
2022-12-09T13:39:57.064Z,33.10
2022-12-09T13:42:55.887Z,34.95
2022-12-09T13:45:34.291Z,38.85
2022-12-09T13:48:52.420Z,33.83
2022-12-09T13:51:27.413Z,30.60
2022-12-09T13:54:03.508Z,34.08
2022-12-09T13:56:38.207Z,31.92
2022-12-09T13:59:39.958Z,31.45
2022-12-09T14:02:30.001Z,29.92
2022-12-09T14:05:12.322Z,29.90
2022-12-09T14:07:50.385Z,33.93
2022-12-09T14:10:42.984Z,32.47
2022-12-09T14:13:24.185Z,31.70
2022-12-09T14:16:18.994Z,30.60
2022-12-09T14:18:52.825Z,32.72
2022-12-09T14:21:33.415Z,31.73
2022-12-09T14:24:32.693Z,32.85
2022-12-09T14:27:20.689Z,30.45
2022-12-09T14:29:57.256Z,31.92
2022-12-09T14:32:56.465Z,34.08
2022-12-09T14:35:44.161Z,31.92
2022-12-09T14:38:32.710Z,29.83
2022-12-09T14:41:18.616Z,29.40
2022-12-09T14:44:04.136Z,29.67
2022-12-09T14:46:39.133Z,30.35
2022-12-09T14:49:17.429Z,31.83
2022-12-09T14:51:52.859Z,29.70
2022-12-09T14:54:31.848Z,32.50
2022-12-09T14:57:21.664Z,29.55
2022-12-09T14:59:57.664Z,29.30
2022-12-09T15:02:32.368Z,27.65
2022-12-09T15:05:17.910Z,26.75
2022-12-09T15:07:52.948Z,28.83
2022-12-09T15:10:33.866Z,29.23
2022-12-09T15:13:10.228Z,29.58
2022-12-09T15:15:43.840Z,28.27
2022-12-09T15:18:21.846Z,29.88
2022-12-09T15:20:57.466Z,30.48
2022-12-09T15:23:33.487Z,27.42
2022-12-09T15:26:11.384Z,32.67
2022-12-09T15:28:55.007Z,30.27
2022-12-09T15:31:33.007Z,29.20
2022-12-09T15:34:16.550Z,32.13
2022-12-09T15:36:59.753Z,31.83
2022-12-09T15:39:39.922Z,33.85
2022-12-09T15:42:28.562Z,33.30
2022-12-09T15:45:19.206Z,33.03
2022-12-09T15:47:58.098Z,33.40
2022-12-09T15:50:39.825Z,35.50
2022-12-09T15:53:23.166Z,36.08
2022-12-09T15:56:03.911Z,35.97
2022-12-09T15:58:53.640Z,40.92
2022-12-09T16:01:36.172Z,38.92
2022-12-09T16:04:22.235Z,34.72
2022-12-09T16:07:06.012Z,38.05
2022-12-09T16:09:39.580Z,41.17
2022-12-09T16:12:25.969Z,39.50
2022-12-09T16:15:00.257Z,38.20
2022-12-09T16:17:36.683Z,37.90
2022-12-09T16:20:43.977Z,37.60
2022-12-09T16:23:22.890Z,37.10
2022-12-09T16:26:06.394Z,40.80
2022-12-09T16:28:40.710Z,36.90
2022-12-09T16:31:19.354Z,39.15
2022-12-09T16:33:52.848Z,36.40
2022-12-09T16:36:27.809Z,38.88
2022-12-09T16:39:43.115Z,37.53
2022-12-09T16:42:23.136Z,38.10
2022-12-09T16:45:21.228Z,33.65
2022-12-09T16:47:56.425Z,37.72
2022-12-09T16:50:31.860Z,38.42
2022-12-09T16:53:08.014Z,45.40
2022-12-09T16:55:49.445Z,40.55
2022-12-09T16:58:23.690Z,38.53
2022-12-09T17:00:57.482Z,44.00
2022-12-09T17:03:37.775Z,41.00
2022-12-09T17:06:15.476Z,45.17
2022-12-09T17:08:48.329Z,44.53
2022-12-09T17:11:21.891Z,45.88
2022-12-09T17:13:54.802Z,47.55
2022-12-09T17:16:27.836Z,48.28
2022-12-09T17:19:02.215Z,49.83
2022-12-09T17:21:35.071Z,49.75
2022-12-09T17:26:41.733Z,51.25
2022-12-09T17:31:49.748Z,50.97
2022-12-09T17:34:23.973Z,58.95
2022-12-09T17:36:57.095Z,51.47
2022-12-09T17:39:30.568Z,52.42
2022-12-09T17:44:36.243Z,38.90
2022-12-09T17:47:09.735Z,52.95
2022-12-09T17:49:44.936Z,58.72
2022-12-09T17:52:17.819Z,53.58
2022-12-09T17:57:23.730Z,50.13
2022-12-09T18:02:31.436Z,51.65
2022-12-09T18:05:06.323Z,50.05
2022-12-09T18:07:39.394Z,51.20
2022-12-09T18:12:47.119Z,53.35
2022-12-09T18:15:20.073Z,52.20
2022-12-09T18:17:55.548Z,49.47
2022-12-09T18:20:29.728Z,56.50
2022-12-09T18:23:05.315Z,57.60
2022-12-09T18:25:39.954Z,56.15
2022-12-09T18:28:12.773Z,53.92
2022-12-09T18:30:47.483Z,59.72
2022-12-09T18:33:33.354Z,61.92
2022-12-09T18:36:19.026Z,66.13
2022-12-09T18:38:52.376Z,63.33
2022-12-09T18:41:29.063Z,61.42
2022-12-09T18:44:05.644Z,56.78
2022-12-09T18:46:44.006Z,63.97
2022-12-09T18:49:24.835Z,61.45
2022-12-09T18:52:03.613Z,58.35
2022-12-09T18:54:40.011Z,66.55
2022-12-09T18:57:13.628Z,67.55
2022-12-09T18:59:50.359Z,64.93
2022-12-09T19:02:23.614Z,64.63
2022-12-09T19:04:57.069Z,69.38
2022-12-09T19:07:32.582Z,67.22
2022-12-09T19:10:08.153Z,64.78
2022-12-09T19:12:51.538Z,69.82
2022-12-09T19:15:28.453Z,74.80
2022-12-09T19:18:01.678Z,68.00
2022-12-09T19:20:34.877Z,64.90
2022-12-09T19:23:11.637Z,78.05
2022-12-09T19:25:45.106Z,69.53
2022-12-09T19:28:20.461Z,65.50
2022-12-09T19:30:56.133Z,75.30
2022-12-09T19:33:29.138Z,64.82
2022-12-09T19:38:38.949Z,60.47
2022-12-09T19:41:12.035Z,56.58
2022-12-09T19:43:45.422Z,60.92
2022-12-09T19:46:18.541Z,64.32
2022-12-09T19:48:51.952Z,54.78
2022-12-09T19:51:29.114Z,56.25
2022-12-09T19:54:06.140Z,62.70
2022-12-09T19:56:39.848Z,52.28
2022-12-09T19:59:13.837Z,53.97
2022-12-09T20:01:47.259Z,54.13
2022-12-09T20:04:48.097Z,54.30
2022-12-09T20:07:17.352Z,47.28
2022-12-09T20:09:52.135Z,47.55
2022-12-09T20:12:25.444Z,54.10
2022-12-09T20:14:58.603Z,56.35
2022-12-09T20:17:32.301Z,48.90
2022-12-09T20:20:07.562Z,45.78
2022-12-09T20:22:40.843Z,47.03
2022-12-09T20:27:48.661Z,43.17
2022-12-09T20:30:23.466Z,49.60
2022-12-09T20:32:56.584Z,47.90
2022-12-09T20:35:29.444Z,49.35
2022-12-09T20:38:02.986Z,51.08
2022-12-09T20:40:40.772Z,52.05
2022-12-09T20:43:17.393Z,56.15
2022-12-09T20:45:51.041Z,56.85
2022-12-09T20:48:27.132Z,61.40
2022-12-09T20:51:07.520Z,56.42
2022-12-09T20:53:43.880Z,54.33
2022-12-09T20:56:25.091Z,56.38
2022-12-09T20:59:03.385Z,50.45
2022-12-09T21:01:38.275Z,54.05
2022-12-09T21:04:11.471Z,52.67
2022-12-09T21:06:45.108Z,53.65
2022-12-09T21:09:23.401Z,54.67
2022-12-09T21:11:58.057Z,44.10
2022-12-09T21:14:33.299Z,51.25
2022-12-09T21:17:06.313Z,53.38
2022-12-09T21:19:39.462Z,53.88
2022-12-09T21:22:12.382Z,49.88
2022-12-09T21:24:45.762Z,55.40
2022-12-09T21:27:20.862Z,57.70
2022-12-09T21:29:53.875Z,50.78
2022-12-09T21:32:27.061Z,53.70
2022-12-09T21:35:02.174Z,51.65
2022-12-09T21:37:36.851Z,50.75
2022-12-09T21:40:11.328Z,52.53
2022-12-09T21:42:45.862Z,51.05
2022-12-09T21:45:19.112Z,55.13
2022-12-09T21:47:52.160Z,51.40
2022-12-09T21:50:25.386Z,52.92
2022-12-09T21:52:58.553Z,58.40
2022-12-09T21:55:34.395Z,58.83
2022-12-09T21:58:08.792Z,57.22
2022-12-09T22:00:43.524Z,51.85
2022-12-09T22:03:16.367Z,56.47
2022-12-09T22:05:51.545Z,55.47
2022-12-09T22:08:28.318Z,57.92
2022-12-09T22:11:02.614Z,58.30
2022-12-09T22:13:39.527Z,59.85
2022-12-09T22:16:16.905Z,58.88
2022-12-09T22:18:50.620Z,57.25
2022-12-09T22:21:26.339Z,54.72
2022-12-09T22:24:02.734Z,60.22
2022-12-09T22:26:35.704Z,58.08
2022-12-09T22:29:12.978Z,55.67
2022-12-09T22:31:47.521Z,60.85
2022-12-09T22:34:21.596Z,56.67
2022-12-09T22:36:55.328Z,58.42
2022-12-09T22:39:28.065Z,57.72
2022-12-09T22:42:00.821Z,55.08
2022-12-09T22:44:35.913Z,59.70
2022-12-09T22:47:09.578Z,65.90
2022-12-09T22:49:42.437Z,67.32
2022-12-09T22:52:15.274Z,63.38
2022-12-09T22:57:22.712Z,63.45
2022-12-09T23:02:30.048Z,66.28
2022-12-09T23:05:03.209Z,72.80
2022-12-09T23:07:36.837Z,73.18
2022-12-09T23:10:11.017Z,68.68
2022-12-09T23:12:43.942Z,73.55
2022-12-09T23:17:51.722Z,74.65
2022-12-09T23:22:57.552Z,74.90
2022-12-09T23:25:30.958Z,81.95
2022-12-09T23:28:04.445Z,76.72
2022-12-09T23:30:38.894Z,77.93
2022-12-09T23:33:11.722Z,87.45
2022-12-09T23:35:44.559Z,80.15
2022-12-09T23:40:53.995Z,60.15
2022-12-09T23:43:27.227Z,82.70
2022-12-09T23:46:02.830Z,78.18
2022-12-09T23:48:36.383Z,77.03
2022-12-09T23:51:13.026Z,80.15
2022-12-09T23:53:47.831Z,77.10
2022-12-09T23:56:22.977Z,79.75
2022-12-09T23:58:59.110Z,79.72
